Time;durP1;ratioP1;P1;durP2;ratioP2;P2;SDS_P1;SDS_P2;PMS_P1;PMS_P2;Temp;Humidity;BMP_temperature;BMP_pressure;BME280_temperature;BME280_humidity;BME280_pressure;Samples;Min_cycle;Max_cycle;Signal;HPM_P1;HPM_P2
2021/07/27 00:00:56;;;;;;;2.73;2.05;;;;;;;22.07;72.34;100233.32;;;;-51
2021/07/27 00:03:56;;;;;;;2.72;1.85;;;;;;;22.06;72.35;100227.13;;;;-58
2021/07/27 00:06:56;;;;;;;2.57;2.09;;;;;;;22.07;72.32;100221.98;;;;-51
2021/07/27 00:09:56;;;;;;;2.23;2.03;;;;;;;22.06;72.32;100219.95;;;;-51
2021/07/27 00:12:56;;;;;;;2.63;2.01;;;;;;;22.06;72.35;100224.77;;;;-59
2021/07/27 00:15:56;;;;;;;2.39;2.19;;;;;;;22.06;72.35;100220.13;;;;-48
2021/07/27 00:18:56;;;;;;;2.12;1.91;;;;;;;22.05;72.35;100215.46;;;;-58
2021/07/27 00:21:56;;;;;;;2.19;1.99;;;;;;;22.04;72.35;100215.16;;;;-48
2021/07/27 00:24:56;;;;;;;2.57;2.37;;;;;;;22.05;72.32;100218.25;;;;-58
2021/07/27 00:27:56;;;;;;;2.22;2.02;;;;;;;22.04;72.32;100218.33;;;;-51
2021/07/27 00:30:56;;;;;;;2.20;2.00;;;;;;;22.04;72.37;100220.95;;;;-51
2021/07/27 00:33:56;;;;;;;2.37;2.17;;;;;;;22.04;72.35;100224.38;;;;-51
2021/07/27 00:36:57;;;;;;;2.29;2.09;;;;;;;22.04;72.32;100225.93;;;;-51
2021/07/27 00:39:56;;;;;;;2.92;2.07;;;;;;;22.03;72.35;100224.62;;;;-50
2021/07/27 00:42:56;;;;;;;2.49;2.09;;;;;;;22.03;72.33;100229.60;;;;-58
2021/07/27 00:45:56;;;;;;;2.30;2.10;;;;;;;22.03;72.39;100232.46;;;;-48
2021/07/27 00:48:56;;;;;;;2.72;2.27;;;;;;;22.02;72.39;100231.91;;;;-48
2021/07/27 00:51:56;;;;;;;2.40;1.93;;;;;;;22.02;72.34;100234.76;;;;-48
2021/07/27 00:54:56;;;;;;;2.35;2.11;;;;;;;22.02;72.35;100242.52;;;;-48
2021/07/27 00:57:56;;;;;;;2.03;1.89;;;;;;;22.02;72.35;100244.70;;;;-51
2021/07/27 01:00:56;;;;;;;2.29;1.92;;;;;;;22.02;72.33;100243.72;;;;-59
2021/07/27 01:03:56;;;;;;;2.33;2.11;;;;;;;22.01;72.37;100240.87;;;;-58
2021/07/27 01:06:56;;;;;;;2.37;2.13;;;;;;;22.00;72.35;100239.66;;;;-50
2021/07/27 01:09:56;;;;;;;2.30;2.10;;;;;;;22.01;72.37;100236.31;;;;-51
2021/07/27 01:12:56;;;;;;;2.25;2.03;;;;;;;22.00;72.34;100231.52;;;;-50
2021/07/27 01:16:01;;;;;;;2.33;2.13;;;;;;;22.00;72.34;100237.06;;;;-50
2021/07/27 01:19:03;;;;;;;3.10;2.09;;;;;;;22.00;72.33;100236.66;;;;-58
2021/07/27 01:39:56;;;;;;;3.21;2.19;;;;;;;21.98;72.34;100215.86;;;;-50
2021/07/27 01:42:56;;;;;;;2.07;1.90;;;;;;;21.98;72.33;100212.43;;;;-51
2021/07/27 01:45:56;;;;;;;2.43;2.11;;;;;;;21.97;72.33;100211.69;;;;-48
2021/07/27 01:48:56;;;;;;;2.61;2.15;;;;;;;21.97;72.33;100207.29;;;;-51
2021/07/27 01:51:56;;;;;;;2.28;2.08;;;;;;;21.97;72.34;100205.23;;;;-48
2021/07/27 01:54:56;;;;;;;2.36;2.16;;;;;;;21.96;72.33;100207.22;;;;-49
2021/07/27 01:57:56;;;;;;;2.38;2.00;;;;;;;21.96;72.33;100212.44;;;;-59
2021/07/27 02:00:56;;;;;;;2.13;1.95;;;;;;;21.96;72.37;100214.41;;;;-58
2021/07/27 02:03:56;;;;;;;2.28;2.09;;;;;;;21.96;72.37;100214.90;;;;-58
2021/07/27 02:06:56;;;;;;;2.33;2.13;;;;;;;21.96;72.36;100215.31;;;;-58
2021/07/27 02:10:02;;;;;;;2.12;1.97;;;;;;;21.95;72.33;100216.94;;;;-51
2021/07/27 02:13:02;;;;;;;2.33;2.00;;;;;;;21.94;72.33;100212.94;;;;-58
2021/07/27 02:15:57;;;;;;;3.14;1.95;;;;;;;21.94;72.37;100217.94;;;;-51
2021/07/27 02:18:56;;;;;;;2.31;2.11;;;;;;;21.93;72.36;100212.86;;;;-51
2021/07/27 02:21:56;;;;;;;2.19;2.00;;;;;;;21.94;72.39;100214.52;;;;-48
2021/07/27 02:24:56;;;;;;;2.39;1.90;;;;;;;21.94;72.35;100206.83;;;;-58
2021/07/27 02:27:56;;;;;;;2.16;1.96;;;;;;;21.93;72.35;100211.08;;;;-51
2021/07/27 02:30:59;;;;;;;2.11;1.91;;;;;;;21.92;72.35;100217.04;;;;-51
2021/07/27 02:33:56;;;;;;;2.00;1.90;;;;;;;21.92;72.36;100219.25;;;;-48
2021/07/27 02:36:56;;;;;;;2.19;1.99;;;;;;;21.92;72.38;100222.44;;;;-58
2021/07/27 02:39:56;;;;;;;2.15;1.95;;;;;;;21.92;72.34;100223.98;;;;-52
2021/07/27 02:42:56;;;;;;;1.91;1.81;;;;;;;21.91;72.35;100226.09;;;;-51
2021/07/27 02:45:56;;;;;;;2.17;1.90;;;;;;;21.91;72.40;100223.64;;;;-51
2021/07/27 02:48:56;;;;;;;2.02;1.82;;;;;;;21.91;72.36;100221.77;;;;-51
2021/07/27 02:51:57;;;;;;;2.03;1.84;;;;;;;21.91;72.38;100226.91;;;;-51
2021/07/27 02:54:56;;;;;;;2.02;1.91;;;;;;;21.90;72.34;100225.94;;;;-51
2021/07/27 02:57:56;;;;;;;2.14;1.89;;;;;;;21.90;72.33;100223.09;;;;-51
2021/07/27 03:00:56;;;;;;;2.43;2.23;;;;;;;21.90;72.37;100223.33;;;;-51
2021/07/27 03:03:56;;;;;;;1.97;1.80;;;;;;;21.90;72.35;100222.44;;;;-51
2021/07/27 03:06:56;;;;;;;2.02;1.84;;;;;;;21.90;72.36;100221.62;;;;-51
2021/07/27 03:10:18;;;;;;;1.89;1.75;;;;;;;21.90;72.30;100223.18;;;;-51
2021/07/27 03:12:56;;;;;;;2.25;2.05;;;;;;;21.90;72.33;100229.86;;;;-51
2021/07/27 03:15:56;;;;;;;2.01;1.91;;;;;;;21.89;72.32;100226.92;;;;-51
2021/07/27 03:18:57;;;;;;;2.25;1.90;;;;;;;21.90;72.35;100236.06;;;;-50
2021/07/27 03:21:56;;;;;;;2.15;1.95;;;;;;;21.89;72.29;100240.63;;;;-50
2021/07/27 03:24:56;;;;;;;2.11;1.93;;;;;;;21.89;72.32;100253.05;;;;-52
2021/07/27 03:27:56;;;;;;;2.39;2.11;;;;;;;21.89;72.30;100253.92;;;;-51
2021/07/27 03:30:56;;;;;;;4.06;1.87;;;;;;;21.89;72.28;100256.05;;;;-51
2021/07/27 03:33:56;;;;;;;2.87;2.14;;;;;;;21.89;72.36;100263.38;;;;-51
2021/07/27 03:36:56;;;;;;;2.02;1.85;;;;;;;21.89;72.33;100263.06;;;;-51
2021/07/27 03:39:56;;;;;;;2.17;1.98;;;;;;;21.89;72.33;100261.60;;;;-51
2021/07/27 03:42:56;;;;;;;2.21;2.01;;;;;;;21.88;72.33;100261.61;;;;-51
2021/07/27 03:45:56;;;;;;;2.01;1.88;;;;;;;21.88;72.31;100252.98;;;;-51
2021/07/27 03:48:56;;;;;;;2.02;1.82;;;;;;;21.88;72.32;100262.02;;;;-51
2021/07/27 03:51:56;;;;;;;2.28;2.08;;;;;;;21.88;72.33;100252.00;;;;-50
2021/07/27 03:54:56;;;;;;;2.01;1.85;;;;;;;21.87;72.36;100248.98;;;;-51
2021/07/27 03:57:56;;;;;;;2.03;1.87;;;;;;;21.87;72.22;100252.90;;;;-51
2021/07/27 04:00:56;;;;;;;2.58;2.07;;;;;;;21.88;72.33;100254.77;;;;-51
2021/07/27 04:03:56;;;;;;;2.03;1.85;;;;;;;21.87;72.30;100253.30;;;;-51
2021/07/27 04:06:56;;;;;;;2.18;1.99;;;;;;;21.86;72.37;100252.41;;;;-51
2021/07/27 04:09:56;;;;;;;2.11;1.91;;;;;;;21.86;72.26;100248.33;;;;-51
2021/07/27 04:12:56;;;;;;;2.01;1.81;;;;;;;21.86;72.32;100248.73;;;;-51
2021/07/27 04:15:56;;;;;;;2.04;1.85;;;;;;;21.86;72.31;100251.92;;;;-51
2021/07/27 04:18:56;;;;;;;1.93;1.79;;;;;;;21.85;72.33;100249.48;;;;-50
2021/07/27 04:21:56;;;;;;;2.12;1.92;;;;;;;21.85;72.33;100252.75;;;;-51
2021/07/27 04:24:56;;;;;;;2.58;1.80;;;;;;;21.85;72.34;100252.09;;;;-50
2021/07/27 04:27:56;;;;;;;2.12;1.97;;;;;;;21.85;72.30;100249.73;;;;-51
2021/07/27 04:30:56;;;;;;;1.97;1.81;;;;;;;21.85;72.29;100248.00;;;;-51
2021/07/27 04:33:56;;;;;;;2.08;1.94;;;;;;;21.85;72.33;100244.52;;;;-51
2021/07/27 04:36:56;;;;;;;2.17;1.97;;;;;;;21.85;72.35;100242.07;;;;-48
2021/07/27 04:39:56;;;;;;;1.91;1.81;;;;;;;21.84;72.28;100240.50;;;;-48
2021/07/27 04:42:56;;;;;;;1.97;1.87;;;;;;;21.84;72.33;100238.96;;;;-48
2021/07/27 04:45:56;;;;;;;1.96;1.79;;;;;;;21.84;72.35;100239.94;;;;-48
2021/07/27 04:48:56;;;;;;;1.82;1.72;;;;;;;21.84;72.29;100240.59;;;;-48
2021/07/27 04:51:56;;;;;;;2.08;1.88;;;;;;;21.84;72.34;100236.09;;;;-48
2021/07/27 04:54:56;;;;;;;2.04;1.84;;;;;;;21.84;72.31;100233.81;;;;-48
2021/07/27 04:57:56;;;;;;;1.94;1.75;;;;;;;21.84;72.33;100233.42;;;;-50
2021/07/27 05:00:56;;;;;;;2.00;1.81;;;;;;;21.84;72.26;100233.27;;;;-50
2021/07/27 05:03:56;;;;;;;2.09;1.89;;;;;;;21.84;72.29;100237.34;;;;-58
2021/07/27 05:06:56;;;;;;;1.91;1.81;;;;;;;21.84;72.27;100234.39;;;;-58
2021/07/27 05:09:56;;;;;;;2.17;1.97;;;;;;;21.84;72.29;100237.02;;;;-57
2021/07/27 05:12:57;;;;;;;1.74;1.64;;;;;;;21.83;72.28;100237.84;;;;-58
2021/07/27 05:15:56;;;;;;;1.90;1.80;;;;;;;21.84;72.27;100241.89;;;;-58
2021/07/27 05:18:56;;;;;;;1.81;1.70;;;;;;;21.84;72.28;100243.55;;;;-58
2021/07/27 05:21:56;;;;;;;1.97;1.78;;;;;;;21.83;72.25;100239.47;;;;-58
2021/07/27 05:24:56;;;;;;;2.09;1.93;;;;;;;21.84;72.25;100232.19;;;;-59
2021/07/27 05:27:57;;;;;;;2.00;1.81;;;;;;;21.83;72.24;100227.89;;;;-58
2021/07/27 05:30:56;;;;;;;1.90;1.80;;;;;;;21.83;72.25;100231.72;;;;-58
2021/07/27 05:33:56;;;;;;;1.92;1.81;;;;;;;21.83;72.24;100234.31;;;;-58
2021/07/27 05:36:56;;;;;;;2.11;1.91;;;;;;;21.83;72.43;100232.53;;;;-57
2021/07/27 05:39:56;;;;;;;3.71;3.27;;;;;;;21.79;72.99;100225.71;;;;-56
2021/07/27 05:42:56;;;;;;;4.57;3.59;;;;;;;21.78;73.09;100221.38;;;;-58
2021/07/27 05:45:57;;;;;;;5.63;4.07;;;;;;;21.77;73.19;100216.89;;;;-57
2021/07/27 05:48:56;;;;;;;4.21;3.81;;;;;;;21.76;73.25;100214.20;;;;-58
2021/07/27 05:51:56;;;;;;;5.62;4.46;;;;;;;21.71;73.70;100214.42;;;;-58
2021/07/27 05:54:56;;;;;;;6.78;4.49;;;;;;;21.73;73.82;100207.73;;;;-67
2021/07/27 05:57:56;;;;;;;10.17;4.49;;;;;;;21.75;73.59;100210.16;;;;-68
2021/07/27 06:00:56;;;;;;;5.19;4.49;;;;;;;21.77;73.47;100214.13;;;;-67
2021/07/27 06:03:56;;;;;;;6.57;4.36;;;;;;;21.77;73.49;100212.11;;;;-66
2021/07/27 06:06:56;;;;;;;5.55;4.34;;;;;;;21.77;73.48;100205.98;;;;-67
2021/07/27 06:09:57;;;;;;;5.15;4.21;;;;;;;21.77;73.45;100209.65;;;;-65
2021/07/27 06:12:57;;;;;;;5.43;4.70;;;;;;;21.80;73.62;100211.67;;;;-58
2021/07/27 06:15:56;;;;;;;6.67;4.62;;;;;;;21.80;73.59;100210.03;;;;-58
2021/07/27 06:18:56;;;;;;;5.32;4.49;;;;;;;21.79;73.67;100207.19;;;;-53
2021/07/27 06:21:56;;;;;;;6.87;4.46;;;;;;;21.80;73.65;100210.11;;;;-58
2021/07/27 06:24:57;;;;;;;5.47;4.12;;;;;;;21.81;73.73;100215.83;;;;-54
2021/07/27 06:27:56;;;;;;;5.69;4.32;;;;;;;21.82;73.72;100215.66;;;;-54
2021/07/27 06:30:56;;;;;;;5.40;4.53;;;;;;;21.82;73.87;100223.72;;;;-57
2021/07/27 06:33:56;;;;;;;6.18;4.47;;;;;;;21.85;73.91;100230.40;;;;-65
2021/07/27 06:36:56;;;;;;;5.72;4.37;;;;;;;21.86;73.72;100236.66;;;;-64
2021/07/27 06:39:56;;;;;;;5.89;4.42;;;;;;;21.87;73.58;100236.75;;;;-65
2021/07/27 06:42:57;;;;;;;5.10;4.09;;;;;;;21.88;73.56;100239.51;;;;-64
2021/07/27 06:45:56;;;;;;;5.47;4.29;;;;;;;21.88;73.43;100234.05;;;;-63
2021/07/27 06:48:56;;;;;;;5.35;4.41;;;;;;;21.88;73.40;100231.59;;;;-63
2021/07/27 06:51:56;;;;;;;4.69;4.09;;;;;;;21.89;73.39;100239.73;;;;-63
2021/07/27 06:54:56;;;;;;;5.32;4.00;;;;;;;21.89;73.34;100241.86;;;;-64
2021/07/27 06:57:56;;;;;;;5.26;4.00;;;;;;;21.89;73.26;100246.20;;;;-63
2021/07/27 07:00:56;;;;;;;4.87;4.01;;;;;;;21.90;73.34;100244.31;;;;-58
2021/07/27 07:03:58;;;;;;;7.07;4.15;;;;;;;21.92;73.21;100245.44;;;;-59
2021/07/27 07:06:56;;;;;;;4.76;3.84;;;;;;;21.93;73.15;100244.77;;;;-59
2021/07/27 07:09:56;;;;;;;5.35;3.89;;;;;;;21.95;73.09;100244.02;;;;-59
2021/07/27 07:12:56;;;;;;;5.56;3.92;;;;;;;21.97;73.03;100248.09;;;;-60
2021/07/27 07:15:56;;;;;;;4.12;3.72;;;;;;;21.97;73.02;100250.52;;;;-58
2021/07/27 07:18:56;;;;;;;6.21;3.83;;;;;;;21.97;72.94;100252.50;;;;-62
2021/07/27 07:21:56;;;;;;;6.50;3.73;;;;;;;21.97;73.02;100256.58;;;;-62
2021/07/27 07:24:56;;;;;;;5.39;3.80;;;;;;;21.96;72.97;100253.65;;;;-62
2021/07/27 07:27:56;;;;;;;7.04;4.14;;;;;;;21.97;73.05;100258.20;;;;-62
2021/07/27 07:30:56;;;;;;;5.04;3.70;;;;;;;21.96;73.02;100258.05;;;;-63
2021/07/27 07:33:56;;;;;;;6.93;3.79;;;;;;;21.95;73.02;100251.27;;;;-62
2021/07/27 07:36:56;;;;;;;5.11;3.87;;;;;;;21.95;72.98;100255.34;;;;-62
2021/07/27 07:39:56;;;;;;;5.63;3.94;;;;;;;21.95;73.02;100251.59;;;;-58
2021/07/27 07:42:56;;;;;;;6.97;3.76;;;;;;;21.97;73.09;100255.66;;;;-55
2021/07/27 07:45:56;;;;;;;5.84;3.60;;;;;;;22.00;73.01;100257.86;;;;-55
2021/07/27 07:48:56;;;;;;;8.67;3.85;;;;;;;22.02;73.06;100260.53;;;;-58
2021/07/27 07:51:58;;;;;;;3.91;3.53;;;;;;;22.03;73.05;100262.23;;;;-66
2021/07/27 07:54:56;;;;;;;4.00;3.57;;;;;;;22.04;73.08;100263.72;;;;-55
2021/07/27 07:57:56;;;;;;;5.41;3.61;;;;;;;22.05;73.08;100263.70;;;;-53
2021/07/27 08:00:56;;;;;;;4.44;3.59;;;;;;;22.05;73.11;100266.95;;;;-56
2021/07/27 08:03:56;;;;;;;4.36;3.81;;;;;;;22.07;73.08;100267.27;;;;-56
2021/07/27 08:06:56;;;;;;;4.73;3.69;;;;;;;22.08;73.04;100264.99;;;;-54
2021/07/27 08:09:56;;;;;;;5.58;3.74;;;;;;;22.09;73.13;100261.30;;;;-59
2021/07/27 08:12:56;;;;;;;4.97;3.50;;;;;;;22.10;73.03;100249.77;;;;-61
2021/07/27 08:15:56;;;;;;;5.36;3.59;;;;;;;22.11;73.09;100239.91;;;;-56
2021/07/27 08:18:56;;;;;;;5.29;3.53;;;;;;;22.12;73.09;100242.49;;;;-54
2021/07/27 08:21:56;;;;;;;4.77;3.61;;;;;;;22.14;73.07;100260.27;;;;-53
2021/07/27 08:24:56;;;;;;;6.01;3.82;;;;;;;22.15;73.07;100267.86;;;;-60
2021/07/27 08:27:56;;;;;;;4.21;3.67;;;;;;;22.15;72.99;100271.53;;;;-57
2021/07/27 08:30:57;;;;;;;5.41;3.42;;;;;;;22.17;73.12;100265.98;;;;-65
2021/07/27 08:33:56;;;;;;;4.16;3.70;;;;;;;22.18;73.03;100262.77;;;;-66
2021/07/27 08:36:56;;;;;;;4.47;3.39;;;;;;;22.18;73.00;100262.92;;;;-56
2021/07/27 08:39:59;;;;;;;4.33;3.15;;;;;;;22.19;73.02;100264.33;;;;-56
2021/07/27 08:42:56;;;;;;;6.14;3.51;;;;;;;22.19;72.73;100262.37;;;;-55
2021/07/27 08:45:56;;;;;;;5.45;3.23;;;;;;;22.18;72.77;100262.45;;;;-57
2021/07/27 08:48:56;;;;;;;6.99;3.61;;;;;;;22.17;72.80;100258.14;;;;-55
2021/07/27 08:51:56;;;;;;;6.48;3.44;;;;;;;22.16;72.79;100256.41;;;;-56
2021/07/27 08:54:56;;;;;;;6.30;3.21;;;;;;;22.16;72.81;100259.69;;;;-56
2021/07/27 08:57:56;;;;;;;4.93;3.39;;;;;;;22.15;72.86;100260.10;;;;-62
2021/07/27 09:00:56;;;;;;;4.16;3.18;;;;;;;22.15;72.76;100249.33;;;;-60
2021/07/27 09:03:56;;;;;;;5.88;3.16;;;;;;;22.16;72.68;100248.03;;;;-56
2021/07/27 09:06:56;;;;;;;6.73;3.26;;;;;;;22.18;72.67;100248.50;;;;-57
2021/07/27 09:09:56;;;;;;;7.29;3.29;;;;;;;22.16;72.71;100249.55;;;;-58
2021/07/27 09:12:56;;;;;;;5.67;3.32;;;;;;;22.16;72.69;100255.84;;;;-57
2021/07/27 09:15:56;;;;;;;4.49;3.29;;;;;;;22.15;72.64;100248.27;;;;-58
2021/07/27 09:18:56;;;;;;;4.50;3.29;;;;;;;22.15;72.64;100247.05;;;;-58
2021/07/27 09:21:56;;;;;;;7.26;3.20;;;;;;;22.15;72.67;100252.52;;;;-58
2021/07/27 09:24:56;;;;;;;4.86;3.72;;;;;;;22.14;72.69;100259.86;;;;-56
2021/07/27 09:27:56;;;;;;;4.63;3.23;;;;;;;22.16;72.82;100269.80;;;;-59
2021/07/27 09:30:56;;;;;;;4.81;3.02;;;;;;;22.18;72.71;100266.36;;;;-59
2021/07/27 09:33:56;;;;;;;7.12;3.45;;;;;;;22.18;72.75;100262.45;;;;-61
2021/07/27 09:36:56;;;;;;;8.39;3.27;;;;;;;22.19;72.79;100258.59;;;;-59
2021/07/27 09:39:56;;;;;;;6.17;3.13;;;;;;;22.20;72.80;100255.34;;;;-53
2021/07/27 09:42:56;;;;;;;4.17;3.30;;;;;;;22.23;72.52;100255.18;;;;-56
2021/07/27 09:45:56;;;;;;;5.20;3.35;;;;;;;22.24;72.72;100254.09;;;;-56
2021/07/27 09:48:56;;;;;;;5.84;3.45;;;;;;;22.26;72.70;100257.02;;;;-54
2021/07/27 09:51:57;;;;;;;6.63;3.41;;;;;;;22.28;72.72;100251.55;;;;-50
2021/07/27 09:54:56;;;;;;;4.33;3.40;;;;;;;22.27;72.63;100249.34;;;;-51
2021/07/27 09:57:56;;;;;;;3.91;3.41;;;;;;;22.29;72.64;100249.27;;;;-53
2021/07/27 10:00:56;;;;;;;4.35;3.07;;;;;;;22.30;72.63;100253.00;;;;-49
2021/07/27 10:03:56;;;;;;;4.08;3.13;;;;;;;22.31;72.58;100252.42;;;;-54
2021/07/27 10:06:56;;;;;;;4.39;3.12;;;;;;;22.30;72.62;100253.15;;;;-52
2021/07/27 10:09:56;;;;;;;9.99;3.46;;;;;;;22.32;72.66;100255.27;;;;-53
2021/07/27 10:12:56;;;;;;;8.56;3.28;;;;;;;22.32;72.63;100252.81;;;;-52
2021/07/27 10:15:57;;;;;;;4.94;3.27;;;;;;;22.32;72.52;100246.77;;;;-53
2021/07/27 10:18:56;;;;;;;5.62;3.13;;;;;;;22.32;72.55;100237.14;;;;-53
2021/07/27 10:21:56;;;;;;;5.54;3.40;;;;;;;22.32;72.64;100234.35;;;;-51
2021/07/27 10:24:57;;;;;;;3.85;3.21;;;;;;;22.32;72.64;100236.15;;;;-52
2021/07/27 10:28:00;;;;;;;7.70;3.31;;;;;;;22.32;72.54;100241.38;;;;-52
2021/07/27 10:30:56;;;;;;;5.29;3.33;;;;;;;22.32;72.53;100247.17;;;;-52
2021/07/27 10:33:56;;;;;;;5.44;3.47;;;;;;;22.31;72.47;100240.25;;;;-52
2021/07/27 10:36:56;;;;;;;6.41;3.31;;;;;;;22.31;72.47;100244.67;;;;-52
2021/07/27 10:39:57;;;;;;;4.97;3.17;;;;;;;22.29;72.47;100240.19;;;;-52
2021/07/27 10:42:56;;;;;;;5.53;3.10;;;;;;;22.29;72.46;100233.09;;;;-52
2021/07/27 10:45:56;;;;;;;3.68;3.00;;;;;;;22.29;72.48;100236.68;;;;-52
2021/07/27 10:48:56;;;;;;;5.26;3.16;;;;;;;22.29;72.40;100236.60;;;;-50
2021/07/27 10:51:56;;;;;;;4.79;3.13;;;;;;;22.28;72.35;100239.03;;;;-50
2021/07/27 10:54:56;;;;;;;6.07;3.18;;;;;;;22.28;72.39;100241.42;;;;-52
2021/07/27 10:57:56;;;;;;;3.56;2.78;;;;;;;22.28;72.33;100247.20;;;;-59
2021/07/27 11:00:57;;;;;;;4.22;2.94;;;;;;;22.27;72.28;100241.67;;;;-53
2021/07/27 11:03:57;;;;;;;3.80;2.89;;;;;;;22.27;72.38;100239.33;;;;-52
2021/07/27 11:06:57;;;;;;;4.63;3.13;;;;;;;22.26;72.33;100236.29;;;;-50
2021/07/27 11:09:56;;;;;;;3.21;2.91;;;;;;;22.26;72.28;100231.31;;;;-50
2021/07/27 11:12:58;;;;;;;5.05;3.15;;;;;;;22.26;72.22;100230.07;;;;-51
2021/07/27 11:15:59;;;;;;;3.86;2.99;;;;;;;22.27;72.23;100229.44;;;;-50
2021/07/27 11:18:56;;;;;;;4.19;2.91;;;;;;;22.26;72.27;100218.09;;;;-50
2021/07/27 11:21:57;;;;;;;3.80;2.94;;;;;;;22.25;72.23;100212.88;;;;-52
2021/07/27 11:24:56;;;;;;;3.31;2.87;;;;;;;22.24;72.26;100206.75;;;;-52
2021/07/27 11:27:56;;;;;;;3.63;2.84;;;;;;;22.24;72.21;100210.99;;;;-52
2021/07/27 11:30:56;;;;;;;3.71;2.99;;;;;;;22.25;72.23;100218.43;;;;-52
2021/07/27 11:33:56;;;;;;;4.63;2.83;;;;;;;22.25;72.21;100215.98;;;;-52
2021/07/27 11:36:57;;;;;;;4.62;2.65;;;;;;;22.25;72.17;100209.87;;;;-53
2021/07/27 11:39:56;;;;;;;5.14;2.91;;;;;;;22.24;72.21;100204.62;;;;-52
2021/07/27 11:42:56;;;;;;;3.34;2.89;;;;;;;22.24;72.18;100195.42;;;;-52
2021/07/27 11:45:56;;;;;;;4.38;2.83;;;;;;;22.24;72.21;100188.46;;;;-52
2021/07/27 11:48:56;;;;;;;3.65;2.83;;;;;;;22.24;72.14;100181.29;;;;-52
2021/07/27 11:51:56;;;;;;;3.71;2.84;;;;;;;22.23;72.29;100176.06;;;;-53
2021/07/27 11:54:56;;;;;;;3.35;3.02;;;;;;;22.25;72.28;100172.63;;;;-53
2021/07/27 11:57:56;;;;;;;3.92;2.70;;;;;;;22.28;72.24;100173.16;;;;-65
2021/07/27 12:00:57;;;;;;;3.06;2.60;;;;;;;22.29;72.26;100165.41;;;;-57
2021/07/27 12:03:56;;;;;;;3.57;2.84;;;;;;;22.31;72.36;100166.47;;;;-54
2021/07/27 12:06:57;;;;;;;3.07;2.77;;;;;;;22.31;72.31;100155.84;;;;-51
2021/07/27 12:09:56;;;;;;;3.23;2.83;;;;;;;22.32;72.21;100160.22;;;;-50
2021/07/27 12:12:56;;;;;;;3.88;2.90;;;;;;;22.32;72.35;100165.13;;;;-50
2021/07/27 12:15:56;;;;;;;5.06;2.69;;;;;;;22.32;72.54;100164.48;;;;-50
2021/07/27 12:18:56;;;;;;;8.53;3.41;;;;;;;22.33;72.56;100165.69;;;;-52
2021/07/27 12:21:58;;;;;;;7.17;2.99;;;;;;;22.33;72.45;100164.64;;;;-56
2021/07/27 12:24:56;;;;;;;6.91;3.03;;;;;;;22.34;72.42;100167.56;;;;-50
2021/07/27 12:27:58;;;;;;;5.91;2.83;;;;;;;22.35;72.61;100160.37;;;;-50
2021/07/27 12:30:56;;;;;;;5.77;3.12;;;;;;;22.37;72.61;100150.46;;;;-50
2021/07/27 12:33:56;;;;;;;8.86;3.18;;;;;;;22.38;72.71;100143.35;;;;-50
2021/07/27 12:36:56;;;;;;;6.63;2.95;;;;;;;22.40;72.57;100142.19;;;;-52
2021/07/27 12:39:56;;;;;;;10.22;2.93;;;;;;;22.40;72.53;100140.39;;;;-51
2021/07/27 12:42:56;;;;;;;4.33;2.79;;;;;;;22.41;72.66;100137.92;;;;-53
2021/07/27 12:45:56;;;;;;;4.56;3.03;;;;;;;22.41;72.48;100137.37;;;;-50
2021/07/27 12:48:56;;;;;;;3.90;2.83;;;;;;;22.43;72.54;100131.13;;;;-52
2021/07/27 12:51:56;;;;;;;4.32;2.77;;;;;;;22.43;72.57;100132.83;;;;-56
2021/07/27 12:54:56;;;;;;;6.29;2.83;;;;;;;22.44;72.47;100127.13;;;;-50
2021/07/27 12:57:56;;;;;;;7.03;3.03;;;;;;;22.43;72.53;100132.77;;;;-53
2021/07/27 13:00:56;;;;;;;5.85;3.03;;;;;;;22.43;72.43;100136.53;;;;-47
2021/07/27 13:03:56;;;;;;;4.65;2.75;;;;;;;22.43;72.45;100137.19;;;;-48
2021/07/27 13:06:56;;;;;;;5.97;2.98;;;;;;;22.44;72.60;100138.30;;;;-49
2021/07/27 13:09:56;;;;;;;5.70;2.70;;;;;;;22.44;72.43;100129.50;;;;-48
2021/07/27 13:12:56;;;;;;;6.52;2.87;;;;;;;22.42;72.49;100130.34;;;;-48
2021/07/27 13:15:56;;;;;;;4.93;2.95;;;;;;;22.43;72.60;100137.08;;;;-47
2021/07/27 13:18:56;;;;;;;5.77;2.95;;;;;;;22.43;72.54;100132.67;;;;-47
2021/07/27 13:21:57;;;;;;;8.08;2.94;;;;;;;22.44;72.55;100129.97;;;;-48
2021/07/27 13:24:56;;;;;;;5.00;3.07;;;;;;;22.46;72.53;100128.66;;;;-49
2021/07/27 13:27:56;;;;;;;5.96;2.93;;;;;;;22.46;72.47;100127.34;;;;-48
2021/07/27 13:30:56;;;;;;;6.21;3.25;;;;;;;22.47;72.50;100119.32;;;;-50
2021/07/27 13:33:56;;;;;;;6.11;2.99;;;;;;;22.47;72.37;100115.42;;;;-50
2021/07/27 13:36:56;;;;;;;5.44;2.81;;;;;;;22.47;72.31;100109.70;;;;-46
2021/07/27 13:39:56;;;;;;;6.51;3.17;;;;;;;22.50;72.70;100107.79;;;;-52
2021/07/27 13:42:56;;;;;;;8.35;3.22;;;;;;;22.52;72.46;100107.53;;;;-51
2021/07/27 13:45:56;;;;;;;9.05;3.01;;;;;;;22.51;72.42;100099.26;;;;-52
2021/07/27 13:48:56;;;;;;;10.33;3.20;;;;;;;22.50;72.42;100099.70;;;;-52
2021/07/27 13:51:56;;;;;;;9.78;2.93;;;;;;;22.49;72.58;100104.02;;;;-52
2021/07/27 13:54:56;;;;;;;7.07;3.15;;;;;;;22.49;72.50;100108.68;;;;-52
2021/07/27 13:57:56;;;;;;;10.04;3.09;;;;;;;22.49;72.39;100098.97;;;;-52
2021/07/27 14:00:57;;;;;;;6.50;2.85;;;;;;;22.48;72.44;100093.11;;;;-52
2021/07/27 14:03:56;;;;;;;6.12;3.09;;;;;;;22.46;72.38;100086.02;;;;-54
2021/07/27 14:06:56;;;;;;;9.73;3.17;;;;;;;22.46;72.51;100080.97;;;;-54
2021/07/27 14:09:59;;;;;;;6.17;3.05;;;;;;;22.46;72.37;100078.84;;;;-54
2021/07/27 14:12:56;;;;;;;6.99;3.01;;;;;;;22.45;72.26;100087.19;;;;-60
2021/07/27 14:15:58;;;;;;;4.99;2.87;;;;;;;22.45;72.26;100086.52;;;;-52
2021/07/27 14:18:56;;;;;;;8.61;3.16;;;;;;;22.45;72.26;100081.05;;;;-55
2021/07/27 14:21:56;;;;;;;5.54;2.69;;;;;;;22.45;72.24;100077.46;;;;-60
2021/07/27 14:24:56;;;;;;;7.35;2.86;;;;;;;22.43;72.24;100072.35;;;;-60
2021/07/27 14:27:56;;;;;;;4.29;2.97;;;;;;;22.44;72.17;100070.63;;;;-61
2021/07/27 14:30:56;;;;;;;6.17;2.97;;;;;;;22.44;72.17;100064.59;;;;-60
2021/07/27 14:33:58;;;;;;;4.83;2.77;;;;;;;22.43;72.14;100060.67;;;;-60
2021/07/27 14:36:56;;;;;;;6.69;3.02;;;;;;;22.42;72.16;100061.41;;;;-55
2021/07/27 14:39:56;;;;;;;6.15;2.91;;;;;;;22.43;72.18;100062.13;;;;-55
2021/07/27 14:42:56;;;;;;;4.49;2.95;;;;;;;22.42;72.18;100056.77;;;;-55
2021/07/27 14:45:56;;;;;;;5.83;2.89;;;;;;;22.41;72.15;100048.27;;;;-55
2021/07/27 14:48:57;;;;;;;4.72;2.91;;;;;;;22.40;72.20;100046.01;;;;-60
2021/07/27 14:51:56;;;;;;;5.09;2.74;;;;;;;22.40;72.14;100045.45;;;;-56
2021/07/27 14:54:56;;;;;;;4.46;2.99;;;;;;;22.39;72.13;100041.38;;;;-55
2021/07/27 14:57:56;;;;;;;4.99;2.97;;;;;;;22.39;72.14;100043.81;;;;-54
2021/07/27 15:00:56;;;;;;;4.78;2.89;;;;;;;22.39;72.13;100049.38;;;;-61
2021/07/27 15:03:56;;;;;;;5.60;2.79;;;;;;;22.38;72.12;100049.28;;;;-60
2021/07/27 15:06:56;;;;;;;4.50;2.81;;;;;;;22.38;72.11;100044.40;;;;-61
2021/07/27 15:09:56;;;;;;;5.25;2.73;;;;;;;22.38;72.15;100041.38;;;;-62
2021/07/27 15:12:56;;;;;;;5.46;3.05;;;;;;;22.38;72.15;100039.01;;;;-52
2021/07/27 15:15:56;;;;;;;4.37;3.11;;;;;;;22.37;72.15;100043.42;;;;-61
2021/07/27 15:18:56;;;;;;;13.72;3.77;;;;;;;22.37;72.24;100045.39;;;;-60
2021/07/27 15:21:56;;;;;;;6.29;3.19;;;;;;;22.39;72.22;100043.66;;;;-56
2021/07/27 15:24:59;;;;;;;5.35;3.09;;;;;;;22.41;72.22;100042.82;;;;-53
2021/07/27 15:27:57;;;;;;;6.30;3.26;;;;;;;22.43;72.25;100042.05;;;;-57
2021/07/27 15:30:56;;;;;;;7.24;3.09;;;;;;;22.44;72.32;100036.65;;;;-62
2021/07/27 15:33:56;;;;;;;6.80;3.49;;;;;;;22.45;72.32;100028.22;;;;-60
2021/07/27 15:36:57;;;;;;;9.77;3.61;;;;;;;22.44;72.21;100022.62;;;;-60
2021/07/27 15:39:56;;;;;;;12.81;3.53;;;;;;;22.44;72.44;100017.87;;;;-53
2021/07/27 15:42:56;;;;;;;10.98;4.19;;;;;;;22.46;72.40;100014.59;;;;-50
2021/07/27 15:45:56;;;;;;;7.73;4.06;;;;;;;22.48;72.41;100015.30;;;;-56
2021/07/27 15:48:56;;;;;;;9.39;3.87;;;;;;;22.49;72.39;100006.52;;;;-53
2021/07/27 15:51:56;;;;;;;6.75;3.89;;;;;;;22.50;72.42;100002.94;;;;-47
2021/07/27 15:54:56;;;;;;;10.38;3.73;;;;;;;22.52;72.36;100001.37;;;;-57
2021/07/27 15:57:56;;;;;;;6.55;3.67;;;;;;;22.53;72.35;99998.73;;;;-59
2021/07/27 16:00:56;;;;;;;9.06;3.71;;;;;;;22.53;72.39;99992.83;;;;-54
2021/07/27 16:03:56;;;;;;;7.93;3.94;;;;;;;22.53;72.39;99991.11;;;;-56
2021/07/27 16:06:56;;;;;;;8.17;3.65;;;;;;;22.55;72.41;99984.98;;;;-50
2021/07/27 16:09:56;;;;;;;7.71;3.85;;;;;;;22.54;72.42;99979.77;;;;-48
2021/07/27 16:12:56;;;;;;;9.08;3.60;;;;;;;22.55;72.36;99977.95;;;;-51
2021/07/27 16:15:56;;;;;;;7.03;3.67;;;;;;;22.54;72.37;99971.52;;;;-50
2021/07/27 16:18:56;;;;;;;7.35;3.60;;;;;;;22.56;72.44;99971.41;;;;-64
2021/07/27 16:21:56;;;;;;;7.99;4.13;;;;;;;22.56;72.42;99969.59;;;;-57
2021/07/27 16:24:56;;;;;;;7.62;3.75;;;;;;;22.54;72.50;99964.73;;;;-60
2021/07/27 16:27:56;;;;;;;10.17;4.16;;;;;;;22.54;72.33;99966.95;;;;-58
2021/07/27 16:30:56;;;;;;;5.89;3.66;;;;;;;22.52;72.43;99964.03;;;;-58
2021/07/27 16:33:56;;;;;;;7.11;3.83;;;;;;;22.52;72.29;99965.44;;;;-58
2021/07/27 16:36:56;;;;;;;6.66;3.89;;;;;;;22.51;72.35;99963.87;;;;-50
2021/07/27 16:39:56;;;;;;;6.56;3.54;;;;;;;22.50;72.35;99965.36;;;;-58
2021/07/27 16:42:56;;;;;;;5.85;3.55;;;;;;;22.50;72.49;99964.08;;;;-64
2021/07/27 16:45:56;;;;;;;8.90;4.37;;;;;;;22.51;72.40;99958.66;;;;-58
2021/07/27 16:48:56;;;;;;;8.26;4.11;;;;;;;22.52;72.40;99953.52;;;;-51
2021/07/27 16:51:56;;;;;;;7.74;3.79;;;;;;;22.52;72.39;99956.70;;;;-52
2021/07/27 16:54:56;;;;;;;8.23;4.20;;;;;;;22.54;72.44;99956.07;;;;-51
2021/07/27 16:57:56;;;;;;;10.48;3.96;;;;;;;22.54;72.44;99955.91;;;;-52
2021/07/27 17:00:56;;;;;;;7.97;4.02;;;;;;;22.53;72.45;99954.20;;;;-58